Time;durP1;ratioP1;P1;durP2;ratioP2;P2;SDS_P1;SDS_P2;PMS_P1;PMS_P2;Temp;Humidity;BMP_temperature;BMP_pressure;BME280_temperature;BME280_humidity;BME280_pressure;Samples;Min_cycle;Max_cycle;Signal;HPM_P1;HPM_P2
2022/10/10 00:00:20;;;;;;;8.80;4.90;;;9.30;99.90;;;;;;5054304;28;20417;-62
2022/10/10 00:02:46;;;;;;;8.55;4.43;;;9.20;99.90;;;;;;5054427;28;20037;-62
2022/10/10 00:05:11;;;;;;;7.30;4.50;;;9.20;99.90;;;;;;5052283;28;20036;-62
2022/10/10 00:07:37;;;;;;;7.65;4.50;;;9.20;99.90;;;;;;5053181;28;20103;-62
2022/10/10 00:10:03;;;;;;;9.15;4.60;;;9.20;99.90;;;;;;5053543;28;20037;-62
2022/10/10 00:12:28;;;;;;;9.07;4.50;;;9.20;99.90;;;;;;5051832;28;20033;-62
2022/10/10 00:14:54;;;;;;;8.18;4.88;;;9.20;99.90;;;;;;5053945;28;20037;-62
2022/10/10 00:17:20;;;;;;;11.38;4.20;;;9.20;99.90;;;;;;5052748;28;20063;-62
2022/10/10 00:19:45;;;;;;;8.65;5.10;;;9.20;99.90;;;;;;5050988;28;20140;-62
2022/10/10 00:22:11;;;;;;;7.07;3.95;;;9.20;99.90;;;;;;5053940;28;20040;-62
2022/10/10 00:24:36;;;;;;;8.55;5.07;;;9.20;99.90;;;;;;5069707;28;20044;-62
2022/10/10 00:27:02;;;;;;;6.95;4.32;;;9.20;99.90;;;;;;5085334;28;20068;-62
2022/10/10 00:29:28;;;;;;;8.32;4.72;;;9.20;99.90;;;;;;5053466;28;20068;-62
2022/10/10 00:31:53;;;;;;;8.70;4.95;;;9.20;99.90;;;;;;5053967;28;20119;-62
2022/10/10 00:34:19;;;;;;;7.13;4.43;;;9.20;99.90;;;;;;5052921;28;20040;-62
2022/10/10 00:36:44;;;;;;;8.60;4.63;;;9.20;99.90;;;;;;5052057;28;20041;-62
2022/10/10 00:39:10;;;;;;;7.88;4.57;;;9.20;99.90;;;;;;5053847;28;20394;-63
2022/10/10 00:41:36;;;;;;;8.02;4.35;;;9.20;99.90;;;;;;5085303;28;20051;-62
2022/10/10 00:44:11;;;;;;;9.57;4.85;;;9.20;99.90;;;;;;5086128;28;20037;-62
2022/10/10 00:46:37;;;;;;;;;;;9.20;99.90;;;;;;5052319;28;20055;-62
2022/10/10 00:49:08;;;;;;;6.72;4.20;;;9.20;99.90;;;;;;5052213;28;19917;-62
2022/10/10 00:51:34;;;;;;;8.05;4.35;;;9.20;99.90;;;;;;5032327;28;20041;-62
2022/10/10 00:54:06;;;;;;;7.93;4.38;;;9.20;99.90;;;;;;5031309;28;20432;-63
2022/10/10 00:56:47;;;;;;;8.65;4.45;;;9.20;99.90;;;;;;5032258;28;20049;-62
2022/10/10 00:59:14;;;;;;;8.32;4.78;;;9.20;99.90;;;;;;5032168;28;20490;-62
2022/10/10 01:01:40;;;;;;;7.90;4.30;;;9.30;99.90;;;;;;5032838;28;20033;-62
2022/10/10 01:04:26;;;;;;;9.80;4.57;;;9.30;99.90;;;;;;5035046;28;20046;-62
2022/10/10 01:06:52;;;;;;;7.70;4.32;;;9.30;99.90;;;;;;5052301;28;20041;-62
2022/10/10 01:09:17;;;;;;;7.90;4.53;;;9.30;99.90;;;;;;5084118;28;20458;-62
2022/10/10 01:11:53;;;;;;;8.27;5.72;;;9.30;99.90;;;;;;5053268;28;20071;-62
2022/10/10 01:14:52;;;;;;;7.63;4.38;;;9.30;99.90;;;;;;5052971;28;20393;-62
2022/10/10 01:17:28;;;;;;;8.82;4.78;;;9.30;99.90;;;;;;5052372;28;20037;-63
2022/10/10 01:20:33;;;;;;;8.75;4.72;;;9.30;99.90;;;;;;5051499;28;20040;-62
2022/10/10 01:23:38;;;;;;;8.00;5.32;;;9.30;99.90;;;;;;5034123;28;20044;-62
2022/10/10 01:26:29;;;;;;;8.55;4.93;;;9.20;99.90;;;;;;5053075;28;20036;-62
2022/10/10 01:29:06;;;;;;;9.50;5.22;;;9.20;99.90;;;;;;5050609;28;20048;-62
2022/10/10 01:31:37;;;;;;;9.63;5.15;;;9.20;99.90;;;;;;5052567;28;20055;-63
2022/10/10 01:34:10;;;;;;;9.32;4.75;;;9.20;99.90;;;;;;5052153;28;20037;-62
2022/10/10 01:36:59;;;;;;;8.35;5.25;;;9.20;99.90;;;;;;5050830;28;20063;-62
2022/10/10 01:39:50;;;;;;;7.32;4.80;;;9.20;99.90;;;;;;5051696;28;20424;-63
2022/10/10 01:42:31;;;;;;;11.38;5.63;;;9.20;99.90;;;;;;5052514;28;20049;-63
2022/10/10 01:44:57;;;;;;;9.23;4.90;;;9.20;99.90;;;;;;5050744;28;20397;-62
2022/10/10 01:47:23;;;;;;;9.60;5.07;;;9.10;99.90;;;;;;5052108;28;20036;-62
2022/10/10 01:49:54;;;;;;;8.07;5.05;;;9.10;99.90;;;;;;5051098;28;20052;-62
2022/10/10 01:52:39;;;;;;;9.35;5.38;;;9.10;99.90;;;;;;5050069;28;20084;-62
2022/10/10 01:55:23;;;;;;;8.77;4.37;;;9.10;99.90;;;;;;5051710;28;20061;-62
2022/10/10 01:58:38;;;;;;;9.45;5.43;;;9.10;99.90;;;;;;5050421;28;20588;-62
2022/10/10 02:01:35;;;;;;;9.40;5.72;;;9.10;99.90;;;;;;5049947;28;20056;-62
2022/10/10 02:04:29;;;;;;;9.43;5.15;;;9.10;99.90;;;;;;5083546;28;20123;-63
2022/10/10 02:07:02;;;;;;;7.47;4.78;;;9.00;99.90;;;;;;5051566;28;20037;-62
2022/10/10 02:09:34;;;;;;;10.05;5.75;;;9.00;99.90;;;;;;5052036;28;20115;-62
2022/10/10 02:12:02;;;;;;;9.05;4.90;;;9.00;99.90;;;;;;5051136;28;20375;-62
2022/10/10 02:14:52;;;;;;;7.82;4.85;;;8.90;99.90;;;;;;5050694;28;20044;-63
2022/10/10 02:17:19;;;;;;;9.80;5.90;;;9.00;99.90;;;;;;5031733;28;20041;-63
2022/10/10 02:19:51;;;;;;;12.23;5.70;;;8.90;99.90;;;;;;5030940;28;20037;-62
2022/10/10 02:22:19;;;;;;;9.30;5.68;;;8.90;99.90;;;;;;5033274;28;20040;-63
2022/10/10 02:24:45;;;;;;;8.75;5.10;;;8.90;99.90;;;;;;5050894;28;20036;-62
2022/10/10 02:27:41;;;;;;;9.20;5.15;;;8.90;99.90;;;;;;5051347;28;20486;-62
2022/10/10 02:30:08;;;;;;;10.27;5.65;;;8.90;99.90;;;;;;5051908;28;20197;-62
2022/10/10 02:32:50;;;;;;;7.55;5.50;;;8.90;99.90;;;;;;5050804;28;20048;-62
2022/10/10 02:35:43;;;;;;;10.32;5.45;;;8.90;99.90;;;;;;5050118;28;20415;-62
2022/10/10 02:38:12;;;;;;;8.77;4.93;;;8.90;99.90;;;;;;5067554;28;20037;-63
2022/10/10 02:40:40;;;;;;;13.23;6.70;;;8.90;99.90;;;;;;5050044;28;20402;-63
2022/10/10 02:43:08;;;;;;;13.23;5.38;;;8.90;99.90;;;;;;5050490;28;20507;-62
2022/10/10 02:45:34;;;;;;;13.00;6.25;;;8.80;99.90;;;;;;5050051;28;20041;-62
2022/10/10 02:48:00;;;;;;;9.73;5.38;;;8.80;99.90;;;;;;5049785;28;20041;-62
2022/10/10 02:50:27;;;;;;;14.55;6.13;;;8.90;99.90;;;;;;5051534;28;20477;-62
2022/10/10 02:52:53;;;;;;;8.57;5.22;;;8.80;99.90;;;;;;5051848;28;20036;-62
2022/10/10 02:55:19;;;;;;;9.15;5.80;;;8.80;99.90;;;;;;5049148;28;20448;-62
2022/10/10 02:57:45;;;;;;;9.55;5.75;;;8.80;99.90;;;;;;5083908;28;20083;-62
2022/10/10 03:00:11;;;;;;;8.77;5.80;;;8.70;99.90;;;;;;5084462;28;20103;-62
2022/10/10 03:02:37;;;;;;;10.27;6.10;;;8.70;99.90;;;;;;5051061;28;20615;-62
2022/10/10 03:05:03;;;;;;;8.95;5.50;;;8.70;99.90;;;;;;5083435;28;20045;-62
2022/10/10 03:07:28;;;;;;;9.77;5.47;;;8.70;99.90;;;;;;5032846;28;20041;-62
2022/10/10 03:09:54;;;;;;;8.85;5.75;;;8.70;99.90;;;;;;5050418;28;20131;-62
2022/10/10 03:12:20;;;;;;;9.75;5.90;;;8.60;99.90;;;;;;5050141;28;20048;-62
2022/10/10 03:14:45;;;;;;;10.00;6.28;;;8.60;99.90;;;;;;5050849;28;20040;-62
2022/10/10 03:17:11;;;;;;;8.23;5.47;;;8.60;99.90;;;;;;5033741;28;20142;-63
2022/10/10 03:19:37;;;;;;;11.80;6.35;;;8.60;99.90;;;;;;5051853;28;20045;-63
2022/10/10 03:22:03;;;;;;;9.02;5.88;;;8.60;99.90;;;;;;5082852;28;20072;-63
2022/10/10 03:24:29;;;;;;;7.88;5.40;;;8.60;99.90;;;;;;5051267;28;20037;-62
2022/10/10 03:26:54;;;;;;;9.82;6.38;;;8.50;99.90;;;;;;5083681;28;20075;-62
2022/10/10 03:29:20;;;;;;;9.55;6.18;;;8.50;99.90;;;;;;5049539;28;20051;-63
2022/10/10 03:31:45;;;;;;;9.05;6.20;;;8.50;99.90;;;;;;5052950;28;20428;-62
2022/10/10 03:34:11;;;;;;;10.38;5.30;;;8.50;99.90;;;;;;5055191;28;20363;-62
2022/10/10 03:36:37;;;;;;;9.52;6.32;;;8.50;99.90;;;;;;5054426;28;20037;-62
2022/10/10 03:39:03;;;;;;;10.07;5.97;;;8.50;99.90;;;;;;5054779;28;20424;-62
2022/10/10 03:41:28;;;;;;;9.30;6.03;;;8.50;99.90;;;;;;5053708;28;20041;-62
2022/10/10 03:43:54;;;;;;;10.40;6.07;;;8.40;99.90;;;;;;5052866;28;20390;-62
2022/10/10 03:46:20;;;;;;;10.80;6.70;;;8.40;99.90;;;;;;5054700;28;20045;-62
2022/10/10 03:48:46;;;;;;;9.18;6.30;;;8.50;99.90;;;;;;5086838;28;20518;-62
2022/10/10 03:51:12;;;;;;;9.10;5.82;;;8.40;99.90;;;;;;5052675;28;20045;-62
2022/10/10 03:53:38;;;;;;;10.50;5.72;;;8.40;99.90;;;;;;5053434;28;20509;-62
2022/10/10 03:56:04;;;;;;;13.02;6.25;;;8.40;99.90;;;;;;5051634;28;20052;-62
2022/10/10 03:58:29;;;;;;;9.65;5.88;;;8.30;99.90;;;;;;5052494;28;20041;-62
2022/10/10 04:00:57;;;;;;;15.05;6.88;;;8.30;99.90;;;;;;5053246;28;20039;-62
2022/10/10 04:03:23;;;;;;;11.07;6.43;;;8.30;99.90;;;;;;5054351;28;20048;-62
2022/10/10 04:05:49;;;;;;;10.63;6.40;;;8.30;99.90;;;;;;5052132;28;20041;-62
2022/10/10 04:08:15;;;;;;;11.05;6.18;;;8.30;99.90;;;;;;5053184;28;20077;-62
2022/10/10 04:10:41;;;;;;;8.57;5.93;;;8.30;99.90;;;;;;5069088;28;20106;-62
2022/10/10 04:13:06;;;;;;;11.82;6.43;;;8.30;99.90;;;;;;5054533;28;20186;-63
2022/10/10 04:15:32;;;;;;;11.20;6.07;;;8.30;99.90;;;;;;5086533;28;20139;-62
2022/10/10 04:17:58;;;;;;;12.18;6.32;;;8.30;99.90;;;;;;5053090;28;20436;-62
2022/10/10 04:20:24;;;;;;;10.40;5.63;;;8.20;99.90;;;;;;5054099;28;20120;-62
2022/10/10 04:22:50;;;;;;;9.32;6.15;;;8.20;99.90;;;;;;5054035;28;20148;-62
2022/10/10 04:25:16;;;;;;;10.90;6.00;;;8.20;99.90;;;;;;5052039;28;20037;-62
2022/10/10 04:27:44;;;;;;;10.57;6.32;;;8.20;99.90;;;;;;5052946;28;20028;-63
2022/10/10 04:30:11;;;;;;;10.05;6.43;;;8.20;99.90;;;;;;5052809;28;20037;-62
2022/10/10 04:32:37;;;;;;;9.07;6.05;;;8.20;99.90;;;;;;5053303;28;20049;-62
2022/10/10 04:35:04;;;;;;;13.07;7.00;;;8.20;99.90;;;;;;5052462;28;20506;-62
2022/10/10 04:37:29;;;;;;;10.00;5.47;;;8.20;99.90;;;;;;5052489;28;20458;-62
2022/10/10 04:39:55;;;;;;;9.13;6.13;;;8.20;99.90;;;;;;5051780;28;20065;-62
2022/10/10 04:42:21;;;;;;;9.13;6.32;;;8.20;99.90;;;;;;5052462;28;20481;-62
2022/10/10 04:44:46;;;;;;;9.82;6.43;;;8.20;99.90;;;;;;5052294;28;20056;-62
2022/10/10 04:47:12;;;;;;;8.75;6.00;;;8.20;99.90;;;;;;5051768;28;20045;-62
2022/10/10 04:49:40;;;;;;;10.32;6.35;;;8.20;99.90;;;;;;5052226;28;20420;-62
2022/10/10 04:52:07;;;;;;;9.85;7.00;;;8.20;99.90;;;;;;5032327;28;20056;-62
2022/10/10 04:54:32;;;;;;;10.05;6.60;;;8.20;99.90;;;;;;5064534;28;20128;-63
2022/10/10 04:56:58;;;;;;;9.88;6.75;;;8.30;99.90;;;;;;5033490;28;20080;-63
2022/10/10 04:59:23;;;;;;;12.30;6.30;;;8.20;99.90;;;;;;5033040;28;20034;-63
2022/10/10 05:01:49;;;;;;;9.63;5.53;;;8.20;99.90;;;;;;5048618;28;20045;-63
2022/10/10 05:04:15;;;;;;;9.68;5.97;;;8.20;99.90;;;;;;5083791;28;20482;-62
2022/10/10 05:06:41;;;;;;;10.57;5.70;;;8.30;99.90;;;;;;5051798;28;20041;-62
2022/10/10 05:09:06;;;;;;;12.93;6.75;;;8.30;99.90;;;;;;5084901;28;20048;-62
2022/10/10 05:11:32;;;;;;;9.68;6.78;;;8.40;99.90;;;;;;5052372;28;20490;-62
2022/10/10 05:13:58;;;;;;;13.48;6.78;;;8.40;99.90;;;;;;5084506;28;20036;-62
2022/10/10 05:16:23;;;;;;;10.38;6.90;;;8.40;99.90;;;;;;5052964;28;20040;-62
2022/10/10 05:18:49;;;;;;;11.00;6.60;;;8.40;99.90;;;;;;5051683;28;20036;-63
2022/10/10 05:21:14;;;;;;;10.60;6.10;;;8.40;99.90;;;;;;5050768;28;20818;-62
2022/10/10 05:23:40;;;;;;;11.52;6.97;;;8.40;99.90;;;;;;5034933;28;20037;-63
2022/10/10 05:26:07;;;;;;;11.00;6.47;;;8.40;99.90;;;;;;5051837;28;20041;-62
2022/10/10 05:28:35;;;;;;;9.43;6.40;;;8.40;99.90;;;;;;5052162;28;20120;-62
2022/10/10 05:31:01;;;;;;;11.43;7.72;;;8.40;99.90;;;;;;5052815;28;20378;-63
2022/10/10 05:33:26;;;;;;;9.98;6.65;;;8.50;99.90;;;;;;5052503;28;20043;-62
2022/10/10 05:35:52;;;;;;;10.82;7.05;;;8.50;99.90;;;;;;5051723;28;20032;-62
2022/10/10 05:38:18;;;;;;;12.90;7.10;;;8.40;99.90;;;;;;5034781;28;20037;-62
2022/10/10 05:40:43;;;;;;;10.82;7.05;;;8.40;99.90;;;;;;5085338;28;20371;-61
2022/10/10 05:43:09;;;;;;;12.20;6.55;;;8.40;99.90;;;;;;5051598;28;20099;-63
2022/10/10 05:45:35;;;;;;;9.90;7.10;;;8.40;99.90;;;;;;5050984;28;20114;-62
2022/10/10 05:48:01;;;;;;;10.50;7.00;;;8.50;99.90;;;;;;5049894;28;20037;-63
2022/10/10 05:50:34;;;;;;;11.90;6.55;;;8.50;99.90;;;;;;5033699;28;20052;-63
2022/10/10 05:53:00;;;;;;;9.32;6.75;;;8.50;99.90;;;;;;5044550;28;20040;-63
2022/10/10 05:55:26;;;;;;;11.93;7.35;;;8.50;99.90;;;;;;5050818;28;20095;-63
2022/10/10 05:57:52;;;;;;;10.65;6.88;;;8.50;99.90;;;;;;5050325;28;20045;-62
2022/10/10 06:00:18;;;;;;;10.23;7.07;;;8.40;99.90;;;;;;5041041;28;20495;-63
2022/10/10 06:02:44;;;;;;;11.90;7.10;;;8.50;99.90;;;;;;5040966;28;20044;-63
2022/10/10 06:05:09;;;;;;;11.18;7.40;;;8.40;99.90;;;;;;5047780;28;20040;-63
2022/10/10 06:07:36;;;;;;;11.00;6.50;;;8.50;99.90;;;;;;5048112;28;20078;-63
2022/10/10 06:10:01;;;;;;;12.80;6.65;;;8.50;99.90;;;;;;5048419;28;20037;-63
2022/10/10 06:12:27;;;;;;;9.98;6.53;;;8.50;99.90;;;;;;5030896;28;20118;-63
2022/10/10 06:14:52;;;;;;;9.88;6.57;;;8.50;99.90;;;;;;5049438;28;20040;-62
2022/10/10 06:17:18;;;;;;;11.32;6.28;;;8.50;99.90;;;;;;5046547;28;20071;-62
2022/10/10 06:19:44;;;;;;;18.70;8.32;;;8.50;99.90;;;;;;5047084;28;20124;-62
2022/10/10 06:22:10;;;;;;;13.82;7.57;;;8.50;99.90;;;;;;5048493;28;20080;-62
2022/10/10 06:24:36;;;;;;;11.98;7.68;;;8.50;99.90;;;;;;5047009;28;20578;-63
2022/10/10 06:27:03;;;;;;;12.00;7.78;;;8.50;99.90;;;;;;5046865;28;20090;-63
2022/10/10 06:29:29;;;;;;;10.15;7.47;;;8.50;99.90;;;;;;5063564;28;20045;-63
2022/10/10 06:31:55;;;;;;;13.25;7.03;;;8.50;99.90;;;;;;5046772;28;20048;-63
2022/10/10 06:34:21;;;;;;;8.45;5.97;;;8.60;99.90;;;;;;5047665;28;20041;-63
2022/10/10 06:36:50;;;;;;;14.45;7.88;;;8.60;99.90;;;;;;5060518;28;20044;-63
2022/10/10 06:39:17;;;;;;;9.40;6.60;;;8.60;99.90;;;;;;5048596;28;20036;-62
2022/10/10 06:41:42;;;;;;;10.77;7.03;;;8.60;99.90;;;;;;5048028;28;20056;-63
2022/10/10 06:44:08;;;;;;;11.23;7.45;;;8.60;99.90;;;;;;5048084;28;20043;-63
2022/10/10 06:46:36;;;;;;;13.07;7.60;;;8.70;99.90;;;;;;5047723;28;20044;-62
2022/10/10 06:49:05;;;;;;;14.20;8.02;;;8.70;99.90;;;;;;5047494;28;20131;-63
2022/10/10 06:51:31;;;;;;;13.60;7.93;;;8.70;99.90;;;;;;5049003;28;20128;-63
2022/10/10 06:53:59;;;;;;;12.93;8.32;;;8.70;99.90;;;;;;5046886;28;20044;-63
2022/10/10 06:56:26;;;;;;;10.70;6.75;;;8.80;99.90;;;;;;5047627;28;20053;-63
2022/10/10 06:58:52;;;;;;;12.32;7.68;;;8.80;99.90;;;;;;5029957;28;20559;-63
2022/10/10 07:01:21;;;;;;;12.70;9.00;;;8.80;99.90;;;;;;5046310;28;20116;-62
2022/10/10 07:03:47;;;;;;;11.55;7.38;;;8.80;99.90;;;;;;5047100;28;20553;-63
2022/10/10 07:06:13;;;;;;;18.10;8.93;;;8.90;99.90;;;;;;5083277;28;20049;-62
2022/10/10 07:08:39;;;;;;;13.30;8.30;;;8.90;99.90;;;;;;5050874;28;20072;-63
2022/10/10 07:11:06;;;;;;;11.63;6.88;;;8.90;99.90;;;;;;5051231;28;20617;-63
2022/10/10 07:13:33;;;;;;;13.65;8.15;;;8.90;99.90;;;;;;5050223;28;20498;-63
2022/10/10 07:15:58;;;;;;;12.13;7.97;;;9.00;99.90;;;;;;5050756;28;20044;-62
2022/10/10 07:18:24;;;;;;;11.23;7.68;;;9.00;99.90;;;;;;5049193;28;20048;-63
2022/10/10 07:20:54;;;;;;;10.23;6.78;;;9.00;99.90;;;;;;5051148;28;20908;-63
2022/10/10 07:23:19;;;;;;;13.75;8.25;;;9.10;99.90;;;;;;5050683;28;20040;-63
2022/10/10 07:25:45;;;;;;;15.43;8.00;;;9.10;99.90;;;;;;5086618;28;20401;-63
2022/10/10 07:28:11;;;;;;;18.67;8.65;;;9.20;99.90;;;;;;5053843;28;20486;-63
2022/10/10 07:30:42;;;;;;;17.23;9.52;;;9.20;99.90;;;;;;5052559;28;20045;-62
2022/10/10 07:33:09;;;;;;;13.68;7.60;;;9.30;99.90;;;;;;5052484;28;20080;-62
2022/10/10 07:35:35;;;;;;;14.57;7.40;;;9.40;99.90;;;;;;5053768;28;20037;-63
2022/10/10 07:38:00;;;;;;;14.13;7.53;;;9.50;99.90;;;;;;5053256;28;20098;-63
2022/10/10 07:40:26;;;;;;;11.20;8.35;;;9.60;99.90;;;;;;5054454;28;20115;-63
2022/10/10 07:42:52;;;;;;;11.77;7.30;;;9.70;99.90;;;;;;5053689;28;20128;-63
2022/10/10 07:45:17;;;;;;;10.10;7.50;;;9.90;99.90;;;;;;5055082;28;20092;-64
2022/10/10 07:47:43;;;;;;;15.27;8.23;;;10.00;99.90;;;;;;5054138;28;20075;-64
2022/10/10 07:50:10;;;;;;;11.98;7.93;;;10.10;99.90;;;;;;5052611;28;20117;-64
2022/10/10 07:52:37;;;;;;;12.27;7.05;;;10.20;99.90;;;;;;5052844;28;20079;-64
2022/10/10 07:55:03;;;;;;;13.02;7.85;;;10.30;99.90;;;;;;5052570;28;20045;-65
2022/10/10 07:57:33;;;;;;;12.80;7.43;;;10.40;99.90;;;;;;5053449;28;20051;-64
2022/10/10 08:00:07;;;;;;;11.93;7.70;;;10.50;99.90;;;;;;5084190;28;20029;-64
2022/10/10 08:02:32;;;;;;;12.48;6.80;;;10.60;99.90;;;;;;5052495;28;20053;-64
2022/10/10 08:04:58;;;;;;;15.02;7.47;;;10.70;99.90;;;;;;5085785;28;20047;-64
2022/10/10 08:07:24;;;;;;;10.25;6.88;;;10.80;99.90;;;;;;5052656;28;20098;-64
2022/10/10 08:09:49;;;;;;;11.70;7.13;;;10.90;99.90;;;;;;5053611;28;20124;-64
2022/10/10 08:12:15;;;;;;;13.38;7.38;;;10.90;99.90;;;;;;5084015;28;20036;-64
2022/10/10 08:14:41;;;;;;;11.57;7.60;;;10.90;99.90;;;;;;5036432;28;20041;-64
2022/10/10 08:17:06;;;;;;;11.93;7.63;;;11.00;99.90;;;;;;5053103;28;20045;-64
2022/10/10 08:19:32;;;;;;;13.10;8.02;;;11.00;99.90;;;;;;5037668;28;20038;-64
2022/10/10 08:21:58;;;;;;;12.20;8.32;;;11.10;99.90;;;;;;5066302;28;20065;-64
2022/10/10 08:24:24;;;;;;;12.85;7.70;;;11.10;99.90;;;;;;5049587;28;20037;-64
2022/10/10 08:26:50;;;;;;;11.23;7.22;;;11.10;99.90;;;;;;5085946;28;20505;-64
2022/10/10 08:29:16;;;;;;;16.20;8.00;;;11.20;99.90;;;;;;5052870;28;20436;-65
2022/10/10 08:31:42;;;;;;;10.80;8.25;;;11.20;99.90;;;;;;5053323;28;20041;-64
2022/10/10 08:34:10;;;;;;;17.02;8.13;;;11.20;99.90;;;;;;5051840;28;20390;-65
2022/10/10 08:36:36;;;;;;;13.30;8.30;;;11.30;99.90;;;;;;5051961;28;20051;-64
2022/10/10 08:39:02;;;;;;;11.85;7.78;;;11.30;99.90;;;;;;5050948;28;20409;-64
2022/10/10 08:41:44;;;;;;;11.88;7.20;;;11.30;99.90;;;;;;5035597;28;20037;-65
2022/10/10 08:44:31;;;;;;;12.48;7.80;;;11.40;99.90;;;;;;5069512;28;20458;-65
2022/10/10 08:47:02;;;;;;;18.63;7.32;;;11.50;99.90;;;;;;5052619;28;20052;-64
2022/10/10 08:49:49;;;;;;;12.45;8.10;;;11.60;99.90;;;;;;5051935;28;20040;-65
2022/10/10 08:52:33;;;;;;;12.77;7.93;;;11.70;99.90;;;;;;5034288;28;20095;-65
2022/10/10 08:55:10;;;;;;;13.15;8.48;;;11.60;99.90;;;;;;5051692;28;20049;-65
2022/10/10 08:57:46;;;;;;;11.80;8.43;;;11.70;99.90;;;;;;5053198;28;20437;-63
2022/10/10 09:00:17;;;;;;;13.60;8.43;;;11.70;99.90;;;;;;5051006;28;20041;-64
2022/10/10 09:03:03;;;;;;;12.48;9.10;;;11.80;99.90;;;;;;5052056;28;20040;-63
2022/10/10 09:05:57;;;;;;;13.75;8.27;;;11.80;99.90;;;;;;5051288;28;20057;-63
2022/10/10 09:08:56;;;;;;;13.88;8.75;;;11.90;99.90;;;;;;5084778;28;20043;-64
2022/10/10 09:11:21;;;;;;;12.68;8.25;;;12.00;99.90;;;;;;5084366;28;20037;-64
2022/10/10 09:14:06;;;;;;;12.32;8.02;;;12.00;99.90;;;;;;5082494;28;20037;-64
2022/10/10 09:16:58;;;;;;;15.27;7.82;;;12.10;99.90;;;;;;5050983;28;20049;-64
2022/10/10 09:20:03;;;;;;;11.73;8.30;;;12.20;99.90;;;;;;5052479;28;20037;-64
2022/10/10 09:22:34;;;;;;;12.95;8.23;;;12.30;99.90;;;;;;5036783;28;20519;-63
2022/10/10 09:25:23;;;;;;;11.85;9.00;;;12.30;99.90;;;;;;5051262;28;20162;-63
2022/10/10 09:28:09;;;;;;;13.30;8.40;;;12.40;99.90;;;;;;5051287;28;20044;-63
2022/10/10 09:30:41;;;;;;;11.98;8.75;;;12.50;99.90;;;;;;5051738;28;20032;-63
2022/10/10 09:33:18;;;;;;;15.02;8.32;;;12.60;99.90;;;;;;5051591;28;20083;-63
2022/10/10 09:35:46;;;;;;;11.55;8.63;;;12.60;99.90;;;;;;5050278;28;20398;-63
2022/10/10 09:38:31;;;;;;;12.52;8.27;;;12.70;99.90;;;;;;5052461;28;20048;-63
2022/10/10 09:41:19;;;;;;;14.77;9.17;;;12.70;99.90;;;;;;5050925;28;20048;-63
2022/10/10 09:43:46;;;;;;;13.88;8.85;;;12.70;99.90;;;;;;5050472;28;20433;-63
2022/10/10 09:46:13;;;;;;;15.98;9.32;;;12.80;99.90;;;;;;5034461;28;20077;-63
2022/10/10 09:48:41;;;;;;;14.95;8.73;;;12.80;99.90;;;;;;5050801;28;20381;-63
2022/10/10 09:51:13;;;;;;;13.52;8.38;;;12.90;99.90;;;;;;5052259;28;20037;-64
2022/10/10 09:53:40;;;;;;;11.95;7.85;;;13.10;99.90;;;;;;5051621;28;20033;-66
2022/10/10 09:56:13;;;;;;;13.80;9.15;;;13.20;99.90;;;;;;5049056;28;20071;-66
2022/10/10 09:58:51;;;;;;;16.35;9.05;;;13.30;99.90;;;;;;5049140;28;20049;-66
2022/10/10 10:01:23;;;;;;;16.70;9.40;;;13.40;99.90;;;;;;5051557;28;20045;-66
2022/10/10 10:04:11;;;;;;;12.57;9.15;;;13.50;99.90;;;;;;5049479;28;20033;-66
2022/10/10 10:06:38;;;;;;;14.15;9.15;;;13.60;99.90;;;;;;5050927;28;20055;-66
2022/10/10 10:09:05;;;;;;;13.57;9.07;;;13.80;99.90;;;;;;5051490;28;20044;-66
2022/10/10 10:11:34;;;;;;;13.90;7.88;;;13.90;99.90;;;;;;5049525;28;20094;-66
2022/10/10 10:14:01;;;;;;;15.43;9.57;;;14.10;99.90;;;;;;5051366;28;20029;-66
2022/10/10 10:16:38;;;;;;;12.70;8.63;;;14.10;99.90;;;;;;5050028;28;20048;-66
2022/10/10 10:19:06;;;;;;;14.13;8.70;;;14.20;99.90;;;;;;5051805;28;20040;-66
2022/10/10 10:21:47;;;;;;;15.73;8.55;;;14.30;99.90;;;;;;5051006;28;20048;-66
2022/10/10 10:24:27;;;;;;;14.95;8.63;;;14.40;99.90;;;;;;5049896;28;20056;-66
2022/10/10 10:26:53;;;;;;;12.25;7.80;;;14.50;99.90;;;;;;5043539;28;20037;-66
2022/10/10 10:29:29;;;;;;;13.77;8.68;;;14.70;99.90;;;;;;5046954;28;20083;-66
2022/10/10 10:32:13;;;;;;;12.40;8.88;;;14.80;99.90;;;;;;5052605;28;20560;-66
2022/10/10 10:34:58;;;;;;;18.30;8.57;;;14.90;99.90;;;;;;5029798;28;20029;-66
2022/10/10 10:37:41;;;;;;;13.55;8.75;;;15.00;99.90;;;;;;5050225;28;20315;-63
2022/10/10 10:40:37;;;;;;;13.10;8.48;;;15.00;99.90;;;;;;5085740;28;20489;-63
2022/10/10 10:43:27;;;;;;;16.40;9.48;;;15.00;99.90;;;;;;5056145;28;20091;-63
2022/10/10 10:46:15;;;;;;;15.65;9.05;;;15.00;99.90;;;;;;5053736;28;20052;-63
2022/10/10 10:48:57;;;;;;;13.20;8.40;;;14.90;99.90;;;;;;5054988;28;20037;-63
2022/10/10 10:51:59;;;;;;;12.82;8.50;;;14.90;99.90;;;;;;5088095;28;20041;-64
2022/10/10 10:54:52;;;;;;;12.88;8.93;;;14.90;99.90;;;;;;5054051;28;20037;-64
2022/10/10 10:57:26;;;;;;;15.38;9.40;;;14.80;99.90;;;;;;5088137;28;20045;-64
2022/10/10 11:00:11;;;;;;;14.15;8.40;;;14.80;99.90;;;;;;5053641;28;20041;-63
2022/10/10 11:03:09;;;;;;;20.70;9.50;;;14.70;99.90;;;;;;5055754;28;20455;-63
2022/10/10 11:05:36;;;;;;;14.32;8.70;;;14.70;99.90;;;;;;5054940;28;20036;-64
2022/10/10 11:08:40;;;;;;;12.40;8.40;;;14.70;99.90;;;;;;5054413;28;20128;-63
2022/10/10 11:11:25;;;;;;;13.60;9.32;;;14.70;99.90;;;;;;5054668;28;20080;-63
2022/10/10 11:14:06;;;;;;;12.90;9.15;;;14.60;99.90;;;;;;5086260;28;20533;-63
2022/10/10 11:16:40;;;;;;;14.57;9.52;;;14.60;99.90;;;;;;5087514;28;20049;-63
2022/10/10 11:19:24;;;;;;;14.57;9.55;;;14.50;99.90;;;;;;5054484;28;20102;-63
2022/10/10 11:22:00;;;;;;;11.90;8.80;;;14.50;99.90;;;;;;5052913;28;20064;-63
2022/10/10 11:25:13;;;;;;;15.38;9.35;;;14.40;99.90;;;;;;5055063;28;20036;-63
2022/10/10 11:27:44;;;;;;;13.98;9.43;;;14.40;99.90;;;;;;5032737;28;20156;-63
2022/10/10 11:30:29;;;;;;;15.27;8.82;;;14.30;99.90;;;;;;5016928;28;20049;-63
2022/10/10 11:33:10;;;;;;;15.77;9.70;;;14.30;99.90;;;;;;5018917;28;20057;-66
2022/10/10 11:35:51;;;;;;;15.23;9.25;;;14.30;99.90;;;;;;5033487;28;20128;-65
2022/10/10 11:38:30;;;;;;;14.48;9.57;;;14.30;99.90;;;;;;5035029;28;20489;-67
2022/10/10 11:41:04;;;;;;;16.65;9.20;;;14.30;99.90;;;;;;5040790;28;20439;-66
2022/10/10 11:43:49;;;;;;;16.05;10.20;;;14.40;99.90;;;;;;5053943;28;20041;-66
2022/10/10 11:46:21;;;;;;;16.10;10.30;;;14.40;99.90;;;;;;5053785;28;20048;-66
2022/10/10 11:49:25;;;;;;;18.27;9.85;;;14.40;99.90;;;;;;5053033;28;20051;-66
2022/10/10 11:51:57;;;;;;;13.85;9.43;;;14.40;99.90;;;;;;5030076;28;20054;-66
2022/10/10 11:55:02;;;;;;;16.63;9.93;;;14.40;99.90;;;;;;5039445;28;20500;-66
2022/10/10 11:57:51;;;;;;;14.43;10.23;;;14.40;99.90;;;;;;5053091;28;20045;-66
2022/10/10 12:00:18;;;;;;;20.20;10.27;;;14.40;99.90;;;;;;5053222;28;20087;-66
2022/10/10 12:02:45;;;;;;;15.40;10.20;;;14.30;99.90;;;;;;5053090;28;20454;-66
2022/10/10 12:05:28;;;;;;;13.73;9.90;;;14.30;99.90;;;;;;5052066;28;20045;-67
2022/10/10 12:08:03;;;;;;;15.05;10.82;;;14.20;99.90;;;;;;5033215;28;20173;-68
2022/10/10 12:10:50;;;;;;;17.10;11.15;;;14.10;99.90;;;;;;5050417;28;20103;-66
2022/10/10 12:13:29;;;;;;;19.20;11.45;;;14.10;99.90;;;;;;5049347;28;20044;-66
2022/10/10 12:16:00;;;;;;;19.80;12.07;;;14.00;99.90;;;;;;5046721;28;20112;-66
2022/10/10 12:18:30;;;;;;;20.05;11.45;;;14.00;99.90;;;;;;5050070;28;20041;-66
2022/10/10 12:21:08;;;;;;;16.33;11.68;;;13.90;99.90;;;;;;5050386;28;20501;-66
2022/10/10 12:23:35;;;;;;;19.73;11.65;;;13.80;99.90;;;;;;5051226;28;20033;-66
2022/10/10 12:26:01;;;;;;;18.75;12.35;;;13.80;99.90;;;;;;5033251;28;20142;-66
2022/10/10 12:28:36;;;;;;;17.27;10.93;;;13.80;99.90;;;;;;5049068;28;20080;-66
2022/10/10 12:31:04;;;;;;;25.35;12.90;;;13.70;99.90;;;;;;5049838;28;20393;-66
2022/10/10 12:33:33;;;;;;;18.67;13.00;;;13.70;99.90;;;;;;5049491;28;20044;-66
2022/10/10 12:36:27;;;;;;;18.40;12.43;;;13.70;99.90;;;;;;5049485;28;20036;-66
2022/10/10 12:39:04;;;;;;;19.70;12.48;;;13.70;99.90;;;;;;5023235;28;20577;-66
2022/10/10 12:41:48;;;;;;;20.42;13.85;;;13.70;99.90;;;;;;5049294;28;20402;-66
2022/10/10 12:44:13;;;;;;;17.70;12.20;;;13.70;99.90;;;;;;5049674;28;20074;-66
2022/10/10 12:46:41;;;;;;;19.10;12.35;;;13.70;99.90;;;;;;5048792;28;20425;-66
2022/10/10 12:49:13;;;;;;;21.90;14.18;;;13.70;99.90;;;;;;5050614;28;20053;-65
2022/10/10 12:51:40;;;;;;;20.15;13.55;;;13.70;99.90;;;;;;5049994;28;20037;-65
2022/10/10 12:54:07;;;;;;;9.80;4.78;;;13.70;99.90;;;;;;5050439;28;20041;-66
2022/10/10 12:56:43;;;;;;;11.23;3.60;;;13.60;99.90;;;;;;5048023;28;20065;-65
2022/10/10 12:59:24;;;;;;;9.38;2.67;;;13.50;99.90;;;;;;5048444;28;20033;-65
2022/10/10 13:01:55;;;;;;;9.38;2.05;;;13.40;99.90;;;;;;5049450;28;20393;-64
2022/10/10 13:04:23;;;;;;;9.90;1.95;;;13.20;99.90;;;;;;5030615;28;20091;-65
2022/10/10 13:06:54;;;;;;;8.68;2.20;;;13.10;99.90;;;;;;5047857;28;20245;-65
2022/10/10 13:09:23;;;;;;;14.30;2.97;;;13.00;99.90;;;;;;5028843;28;20056;-64